YMDN weather

Merredin Airport
Western Australia, Australia

Public forecast

Using degrees Celsius for public forecast. Weather courtesy of forecast.io.

METAR (pilot weather report)

Closest report is RAAF Base Pearce, 118.4 nm (219.4 km) W. Retrieved 2019/03/23 14:30 UTC (5 minutes ago):

YPEA 231430Z AUTO 19007KT 9999 // NCD 16/10 Q1016

TAF (pilot weather forecast)

Forecast is more than 6 hours old.

Closest forecast is RAAF Base Pearce, 118.4 nm (219.4 km) W. Retrieved 2019/03/23 06:00 UTC (9 hours ago):

TAF YPEA 230431Z 2306/2324 12012KT CAVOK FM231200 18008KT CAVOK